sensor_id;sensor_type;location;lat;lon;timestamp;P1;durP1;ratioP1;P2;durP2;ratioP2
46505;SDS011;32220;49.808;9.968;2023-03-01T00:01:31;18.53;;;12.57;;
46505;SDS011;32220;49.808;9.968;2023-03-01T00:03:59;20.13;;;12.57;;
46505;SDS011;32220;49.808;9.968;2023-03-01T00:06:28;18.83;;;11.80;;
46505;SDS011;32220;49.808;9.968;2023-03-01T00:08:56;18.53;;;11.90;;
46505;SDS011;32220;49.808;9.968;2023-03-01T00:11:25;18.23;;;12.43;;
46505;SDS011;32220;49.808;9.968;2023-03-01T00:13:55;14.20;;;11.50;;
46505;SDS011;32220;49.808;9.968;2023-03-01T00:16:26;19.50;;;12.80;;
46505;SDS011;32220;49.808;9.968;2023-03-01T00:18:56;16.83;;;11.30;;
46505;SDS011;32220;49.808;9.968;2023-03-01T00:21:24;18.67;;;13.33;;
46505;SDS011;32220;49.808;9.968;2023-03-01T00:23:55;19.20;;;13.40;;
46505;SDS011;32220;49.808;9.968;2023-03-01T00:26:24;18.13;;;12.03;;
46505;SDS011;32220;49.808;9.968;2023-03-01T00:28:53;19.00;;;13.23;;
46505;SDS011;32220;49.808;9.968;2023-03-01T00:31:23;17.13;;;12.57;;
46505;SDS011;32220;49.808;9.968;2023-03-01T00:33:52;18.13;;;12.13;;
46505;SDS011;32220;49.808;9.968;2023-03-01T00:36:23;17.13;;;12.50;;
46505;SDS011;32220;49.808;9.968;2023-03-01T00:38:52;20.57;;;13.23;;
46505;SDS011;32220;49.808;9.968;2023-03-01T00:41:22;18.47;;;12.90;;
46505;SDS011;32220;49.808;9.968;2023-03-01T00:43:52;15.30;;;11.77;;
46505;SDS011;32220;49.808;9.968;2023-03-01T00:46:21;16.17;;;11.90;;
46505;SDS011;32220;49.808;9.968;2023-03-01T00:48:50;18.10;;;12.27;;
46505;SDS011;32220;49.808;9.968;2023-03-01T00:51:19;18.47;;;12.50;;
46505;SDS011;32220;49.808;9.968;2023-03-01T00:53:49;16.07;;;11.17;;
46505;SDS011;32220;49.808;9.968;2023-03-01T00:56:18;16.07;;;12.20;;
46505;SDS011;32220;49.808;9.968;2023-03-01T00:58:47;17.87;;;12.60;;
46505;SDS011;32220;49.808;9.968;2023-03-01T01:01:17;19.70;;;12.97;;
46505;SDS011;32220;49.808;9.968;2023-03-01T01:03:47;19.57;;;12.40;;
46505;SDS011;32220;49.808;9.968;2023-03-01T01:06:17;18.80;;;12.40;;
46505;SDS011;32220;49.808;9.968;2023-03-01T01:08:46;18.07;;;12.30;;
46505;SDS011;32220;49.808;9.968;2023-03-01T01:11:14;16.93;;;11.83;;
46505;SDS011;32220;49.808;9.968;2023-03-01T01:13:43;17.70;;;12.33;;
46505;SDS011;32220;49.808;9.968;2023-03-01T01:16:13;17.00;;;11.73;;
46505;SDS011;32220;49.808;9.968;2023-03-01T01:18:41;17.87;;;12.33;;
46505;SDS011;32220;49.808;9.968;2023-03-01T01:21:11;17.53;;;11.40;;
46505;SDS011;32220;49.808;9.968;2023-03-01T01:23:40;19.40;;;12.60;;
46505;SDS011;32220;49.808;9.968;2023-03-01T01:26:10;17.53;;;11.57;;
46505;SDS011;32220;49.808;9.968;2023-03-01T01:28:40;20.00;;;11.10;;
46505;SDS011;32220;49.808;9.968;2023-03-01T01:31:08;17.37;;;12.83;;
46505;SDS011;32220;49.808;9.968;2023-03-01T01:33:37;18.13;;;12.13;;
46505;SDS011;32220;49.808;9.968;2023-03-01T01:36:06;17.27;;;11.27;;
46505;SDS011;32220;49.808;9.968;2023-03-01T01:38:34;14.87;;;11.00;;
46505;SDS011;32220;49.808;9.968;2023-03-01T01:41:03;19.03;;;12.43;;
46505;SDS011;32220;49.808;9.968;2023-03-01T01:43:33;17.87;;;11.23;;
46505;SDS011;32220;49.808;9.968;2023-03-01T01:46:03;18.87;;;13.13;;
46505;SDS011;32220;49.808;9.968;2023-03-01T01:48:34;19.10;;;12.43;;
46505;SDS011;32220;49.808;9.968;2023-03-01T01:51:10;17.73;;;12.43;;
46505;SDS011;32220;49.808;9.968;2023-03-01T01:53:41;21.13;;;13.47;;
46505;SDS011;32220;49.808;9.968;2023-03-01T01:56:12;22.07;;;13.10;;
46505;SDS011;32220;49.808;9.968;2023-03-01T01:58:43;19.63;;;12.43;;
46505;SDS011;32220;49.808;9.968;2023-03-01T02:01:13;21.47;;;12.97;;
46505;SDS011;32220;49.808;9.968;2023-03-01T02:03:42;19.87;;;12.70;;
46505;SDS011;32220;49.808;9.968;2023-03-01T02:06:13;20.03;;;13.70;;
46505;SDS011;32220;49.808;9.968;2023-03-01T02:08:47;20.60;;;12.50;;
46505;SDS011;32220;49.808;9.968;2023-03-01T02:11:17;21.57;;;14.07;;
46505;SDS011;32220;49.808;9.968;2023-03-01T02:13:47;19.73;;;13.37;;
46505;SDS011;32220;49.808;9.968;2023-03-01T02:16:16;20.03;;;13.40;;
46505;SDS011;32220;49.808;9.968;2023-03-01T02:18:46;21.33;;;13.87;;
46505;SDS011;32220;49.808;9.968;2023-03-01T02:21:20;24.63;;;13.07;;
46505;SDS011;32220;49.808;9.968;2023-03-01T02:23:58;20.03;;;13.40;;
46505;SDS011;32220;49.808;9.968;2023-03-01T02:26:33;17.90;;;12.63;;
46505;SDS011;32220;49.808;9.968;2023-03-01T02:29:08;19.33;;;12.93;;
46505;SDS011;32220;49.808;9.968;2023-03-01T02:31:36;20.37;;;13.37;;
46505;SDS011;32220;49.808;9.968;2023-03-01T02:34:12;21.30;;;13.73;;
46505;SDS011;32220;49.808;9.968;2023-03-01T02:36:43;22.33;;;13.40;;
46505;SDS011;32220;49.808;9.968;2023-03-01T02:39:15;23.73;;;14.13;;
46505;SDS011;32220;49.808;9.968;2023-03-01T02:41:47;20.20;;;13.47;;
46505;SDS011;32220;49.808;9.968;2023-03-01T02:44:19;22.17;;;13.80;;
46505;SDS011;32220;49.808;9.968;2023-03-01T02:46:48;21.30;;;13.77;;
46505;SDS011;32220;49.808;9.968;2023-03-01T02:49:19;21.23;;;13.67;;
46505;SDS011;32220;49.808;9.968;2023-03-01T02:54:46;19.57;;;12.87;;
46505;SDS011;32220;49.808;9.968;2023-03-01T02:57:17;21.03;;;13.33;;
46505;SDS011;32220;49.808;9.968;2023-03-01T02:59:47;20.47;;;13.47;;
46505;SDS011;32220;49.808;9.968;2023-03-01T03:02:21;21.83;;;13.17;;
46505;SDS011;32220;49.808;9.968;2023-03-01T03:05:05;23.00;;;13.47;;
46505;SDS011;32220;49.808;9.968;2023-03-01T03:07:35;20.37;;;12.93;;
46505;SDS011;32220;49.808;9.968;2023-03-01T03:10:06;19.50;;;12.90;;
46505;SDS011;32220;49.808;9.968;2023-03-01T03:12:41;21.20;;;13.53;;
46505;SDS011;32220;49.808;9.968;2023-03-01T03:15:11;19.53;;;13.57;;
46505;SDS011;32220;49.808;9.968;2023-03-01T03:17:39;20.13;;;12.37;;
46505;SDS011;32220;49.808;9.968;2023-03-01T03:20:09;20.73;;;13.67;;
46505;SDS011;32220;49.808;9.968;2023-03-01T03:22:45;20.37;;;13.20;;
46505;SDS011;32220;49.808;9.968;2023-03-01T03:25:14;24.13;;;13.97;;
46505;SDS011;32220;49.808;9.968;2023-03-01T03:27:43;19.93;;;12.27;;
46505;SDS011;32220;49.808;9.968;2023-03-01T03:30:14;20.30;;;13.03;;
46505;SDS011;32220;49.808;9.968;2023-03-01T03:32:45;20.83;;;13.80;;
46505;SDS011;32220;49.808;9.968;2023-03-01T03:35:18;20.90;;;13.37;;
46505;SDS011;32220;49.808;9.968;2023-03-01T03:37:47;18.97;;;12.57;;
46505;SDS011;32220;49.808;9.968;2023-03-01T03:40:33;18.73;;;12.10;;
46505;SDS011;32220;49.808;9.968;2023-03-01T03:43:02;21.73;;;13.17;;
46505;SDS011;32220;49.808;9.968;2023-03-01T03:45:32;19.97;;;12.67;;
46505;SDS011;32220;49.808;9.968;2023-03-01T03:48:01;21.43;;;13.53;;
46505;SDS011;32220;49.808;9.968;2023-03-01T03:50:30;21.10;;;13.17;;
46505;SDS011;32220;49.808;9.968;2023-03-01T03:52:59;23.27;;;13.17;;
46505;SDS011;32220;49.808;9.968;2023-03-01T03:55:28;20.63;;;13.37;;
46505;SDS011;32220;49.808;9.968;2023-03-01T03:57:57;19.17;;;12.17;;
46505;SDS011;32220;49.808;9.968;2023-03-01T04:00:28;19.97;;;12.70;;
46505;SDS011;32220;49.808;9.968;2023-03-01T04:02:57;20.27;;;12.40;;
46505;SDS011;32220;49.808;9.968;2023-03-01T04:05:25;21.07;;;12.37;;
46505;SDS011;32220;49.808;9.968;2023-03-01T04:07:53;19.60;;;12.03;;
46505;SDS011;32220;49.808;9.968;2023-03-01T04:10:28;21.87;;;13.73;;
46505;SDS011;32220;49.808;9.968;2023-03-01T04:12:57;20.50;;;13.67;;
46505;SDS011;32220;49.808;9.968;2023-03-01T04:15:26;20.60;;;13.00;;
46505;SDS011;32220;49.808;9.968;2023-03-01T04:17:54;18.73;;;12.10;;
46505;SDS011;32220;49.808;9.968;2023-03-01T04:20:25;22.83;;;14.07;;
46505;SDS011;32220;49.808;9.968;2023-03-01T04:22:57;21.47;;;13.23;;
46505;SDS011;32220;49.808;9.968;2023-03-01T04:25:26;17.93;;;12.30;;
46505;SDS011;32220;49.808;9.968;2023-03-01T04:27:53;18.23;;;12.60;;
46505;SDS011;32220;49.808;9.968;2023-03-01T04:30:21;21.30;;;13.63;;
46505;SDS011;32220;49.808;9.968;2023-03-01T04:32:51;19.77;;;13.13;;
46505;SDS011;32220;49.808;9.968;2023-03-01T04:35:19;20.37;;;12.57;;
46505;SDS011;32220;49.808;9.968;2023-03-01T04:37:48;20.90;;;13.27;;
46505;SDS011;32220;49.808;9.968;2023-03-01T04:40:16;21.80;;;13.77;;
46505;SDS011;32220;49.808;9.968;2023-03-01T04:42:44;19.73;;;13.30;;
46505;SDS011;32220;49.808;9.968;2023-03-01T04:45:13;23.67;;;13.40;;
46505;SDS011;32220;49.808;9.968;2023-03-01T04:47:41;20.83;;;13.57;;
46505;SDS011;32220;49.808;9.968;2023-03-01T04:50:11;20.23;;;13.37;;
46505;SDS011;32220;49.808;9.968;2023-03-01T04:52:41;19.23;;;13.47;;
46505;SDS011;32220;49.808;9.968;2023-03-01T04:55:10;22.63;;;14.47;;
46505;SDS011;32220;49.808;9.968;2023-03-01T04:57:38;20.27;;;13.13;;
46505;SDS011;32220;49.808;9.968;2023-03-01T05:00:09;23.33;;;13.70;;
46505;SDS011;32220;49.808;9.968;2023-03-01T05:02:47;20.90;;;14.60;;
46505;SDS011;32220;49.808;9.968;2023-03-01T05:05:23;22.50;;;14.10;;
46505;SDS011;32220;49.808;9.968;2023-03-01T05:07:53;20.53;;;13.20;;
46505;SDS011;32220;49.808;9.968;2023-03-01T05:10:23;21.57;;;13.67;;
46505;SDS011;32220;49.808;9.968;2023-03-01T05:12:52;18.93;;;12.87;;
46505;SDS011;32220;49.808;9.968;2023-03-01T05:15:20;18.70;;;13.07;;
46505;SDS011;32220;49.808;9.968;2023-03-01T05:17:51;17.53;;;12.50;;
46505;SDS011;32220;49.808;9.968;2023-03-01T05:20:20;21.73;;;13.80;;
46505;SDS011;32220;49.808;9.968;2023-03-01T05:22:49;21.67;;;13.43;;
46505;SDS011;32220;49.808;9.968;2023-03-01T05:25:17;19.87;;;13.07;;
46505;SDS011;32220;49.808;9.968;2023-03-01T05:27:48;20.63;;;13.57;;
46505;SDS011;32220;49.808;9.968;2023-03-01T05:30:16;21.03;;;12.23;;
46505;SDS011;32220;49.808;9.968;2023-03-01T05:32:45;21.87;;;14.40;;
46505;SDS011;32220;49.808;9.968;2023-03-01T05:35:15;22.90;;;13.33;;
46505;SDS011;32220;49.808;9.968;2023-03-01T05:37:46;20.73;;;13.50;;
46505;SDS011;32220;49.808;9.968;2023-03-01T05:40:16;19.57;;;12.67;;
46505;SDS011;32220;49.808;9.968;2023-03-01T05:42:46;18.13;;;12.43;;
46505;SDS011;32220;49.808;9.968;2023-03-01T05:45:17;23.70;;;13.57;;
46505;SDS011;32220;49.808;9.968;2023-03-01T05:47:46;20.33;;;13.17;;
46505;SDS011;32220;49.808;9.968;2023-03-01T05:50:16;23.23;;;13.77;;
46505;SDS011;32220;49.808;9.968;2023-03-01T05:52:46;21.40;;;13.27;;
46505;SDS011;32220;49.808;9.968;2023-03-01T05:55:16;22.60;;;14.97;;
46505;SDS011;32220;49.808;9.968;2023-03-01T05:57:44;24.50;;;14.47;;
46505;SDS011;32220;49.808;9.968;2023-03-01T06:00:14;20.60;;;13.63;;
46505;SDS011;32220;49.808;9.968;2023-03-01T06:02:48;20.70;;;13.63;;
46505;SDS011;32220;49.808;9.968;2023-03-01T06:05:16;20.17;;;13.87;;
46505;SDS011;32220;49.808;9.968;2023-03-01T06:07:44;20.23;;;13.57;;
46505;SDS011;32220;49.808;9.968;2023-03-01T06:10:12;20.33;;;13.63;;
46505;SDS011;32220;49.808;9.968;2023-03-01T06:12:41;19.73;;;13.17;;
46505;SDS011;32220;49.808;9.968;2023-03-01T06:15:15;21.97;;;14.93;;
46505;SDS011;32220;49.808;9.968;2023-03-01T06:17:45;24.67;;;14.40;;
46505;SDS011;32220;49.808;9.968;2023-03-01T06:20:14;20.37;;;13.87;;
46505;SDS011;32220;49.808;9.968;2023-03-01T06:22:44;20.60;;;13.47;;
46505;SDS011;32220;49.808;9.968;2023-03-01T06:25:12;22.50;;;14.07;;
46505;SDS011;32220;49.808;9.968;2023-03-01T06:27:42;19.93;;;14.07;;
46505;SDS011;32220;49.808;9.968;2023-03-01T06:30:11;24.47;;;15.07;;
46505;SDS011;32220;49.808;9.968;2023-03-01T06:32:42;21.43;;;13.93;;
46505;SDS011;32220;49.808;9.968;2023-03-01T06:35:11;21.30;;;14.03;;
46505;SDS011;32220;49.808;9.968;2023-03-01T06:37:40;21.33;;;13.83;;
46505;SDS011;32220;49.808;9.968;2023-03-01T06:40:08;23.73;;;14.87;;
46505;SDS011;32220;49.808;9.968;2023-03-01T06:42:40;22.37;;;14.23;;
46505;SDS011;32220;49.808;9.968;2023-03-01T06:45:10;20.00;;;13.63;;
46505;SDS011;32220;49.808;9.968;2023-03-01T06:47:38;23.77;;;14.47;;
46505;SDS011;32220;49.808;9.968;2023-03-01T06:50:08;22.70;;;14.97;;
46505;SDS011;32220;49.808;9.968;2023-03-01T06:52:38;22.83;;;14.30;;
46505;SDS011;32220;49.808;9.968;2023-03-01T06:55:06;18.80;;;12.87;;
46505;SDS011;32220;49.808;9.968;2023-03-01T06:57:35;20.40;;;13.33;;
46505;SDS011;32220;49.808;9.968;2023-03-01T07:00:03;23.83;;;15.53;;
46505;SDS011;32220;49.808;9.968;2023-03-01T07:02:32;18.87;;;14.27;;
46505;SDS011;32220;49.808;9.968;2023-03-01T07:05:00;21.70;;;13.63;;
46505;SDS011;32220;49.808;9.968;2023-03-01T07:07:29;20.77;;;13.43;;
46505;SDS011;32220;49.808;9.968;2023-03-01T07:09:57;18.90;;;12.87;;
46505;SDS011;32220;49.808;9.968;2023-03-01T07:12:25;20.83;;;14.30;;
46505;SDS011;32220;49.808;9.968;2023-03-01T07:14:53;20.70;;;13.83;;
46505;SDS011;32220;49.808;9.968;2023-03-01T07:17:21;18.97;;;13.70;;
46505;SDS011;32220;49.808;9.968;2023-03-01T07:19:48;19.47;;;14.20;;
46505;SDS011;32220;49.808;9.968;2023-03-01T07:22:16;21.60;;;13.13;;
46505;SDS011;32220;49.808;9.968;2023-03-01T07:24:46;20.00;;;13.60;;
46505;SDS011;32220;49.808;9.968;2023-03-01T07:27:14;16.20;;;12.60;;
46505;SDS011;32220;49.808;9.968;2023-03-01T07:29:41;16.87;;;12.87;;
46505;SDS011;32220;49.808;9.968;2023-03-01T07:32:09;16.90;;;13.20;;
46505;SDS011;32220;49.808;9.968;2023-03-01T07:34:38;16.67;;;12.63;;
46505;SDS011;32220;49.808;9.968;2023-03-01T07:37:06;17.87;;;13.53;;
46505;SDS011;32220;49.808;9.968;2023-03-01T07:39:33;17.97;;;13.27;;
46505;SDS011;32220;49.808;9.968;2023-03-01T07:42:02;20.87;;;13.77;;
46505;SDS011;32220;49.808;9.968;2023-03-01T07:44:30;18.20;;;13.23;;
46505;SDS011;32220;49.808;9.968;2023-03-01T07:46:58;17.73;;;13.10;;
46505;SDS011;32220;49.808;9.968;2023-03-01T07:49:26;21.20;;;14.37;;
46505;SDS011;32220;49.808;9.968;2023-03-01T07:51:54;19.73;;;14.23;;
46505;SDS011;32220;49.808;9.968;2023-03-01T07:54:22;18.20;;;13.70;;
46505;SDS011;32220;49.808;9.968;2023-03-01T07:56:50;18.27;;;13.90;;
46505;SDS011;32220;49.808;9.968;2023-03-01T07:59:19;21.10;;;14.07;;
46505;SDS011;32220;49.808;9.968;2023-03-01T08:01:47;20.07;;;13.50;;
46505;SDS011;32220;49.808;9.968;2023-03-01T08:04:14;21.47;;;13.43;;
46505;SDS011;32220;49.808;9.968;2023-03-01T08:06:42;21.83;;;13.70;;
46505;SDS011;32220;49.808;9.968;2023-03-01T08:09:10;21.13;;;13.93;;
46505;SDS011;32220;49.808;9.968;2023-03-01T08:11:38;19.63;;;13.90;;
46505;SDS011;32220;49.808;9.968;2023-03-01T08:14:06;20.17;;;14.03;;
46505;SDS011;32220;49.808;9.968;2023-03-01T08:16:35;19.90;;;14.03;;
46505;SDS011;32220;49.808;9.968;2023-03-01T08:19:04;17.73;;;13.90;;
46505;SDS011;32220;49.808;9.968;2023-03-01T08:21:32;18.10;;;14.57;;
46505;SDS011;32220;49.808;9.968;2023-03-01T08:24:01;16.70;;;13.73;;
46505;SDS011;32220;49.808;9.968;2023-03-01T08:26:30;19.53;;;14.17;;
46505;SDS011;32220;49.808;9.968;2023-03-01T08:28:59;15.53;;;13.87;;
46505;SDS011;32220;49.808;9.968;2023-03-01T08:31:29;14.77;;;13.27;;
46505;SDS011;32220;49.808;9.968;2023-03-01T08:34:01;16.47;;;14.17;;
46505;SDS011;32220;49.808;9.968;2023-03-01T08:36:32;13.73;;;12.23;;
46505;SDS011;32220;49.808;9.968;2023-03-01T08:39:02;16.77;;;13.83;;
46505;SDS011;32220;49.808;9.968;2023-03-01T08:41:29;15.43;;;13.93;;
46505;SDS011;32220;49.808;9.968;2023-03-01T08:43:57;16.03;;;13.90;;
46505;SDS011;32220;49.808;9.968;2023-03-01T08:46:26;18.20;;;13.90;;
46505;SDS011;32220;49.808;9.968;2023-03-01T08:48:54;14.77;;;13.27;;
46505;SDS011;32220;49.808;9.968;2023-03-01T08:51:24;15.10;;;13.50;;
46505;SDS011;32220;49.808;9.968;2023-03-01T08:53:52;14.63;;;13.17;;
46505;SDS011;32220;49.808;9.968;2023-03-01T08:56:21;16.83;;;15.17;;
46505;SDS011;32220;49.808;9.968;2023-03-01T08:58:49;15.30;;;13.80;;
46505;SDS011;32220;49.808;9.968;2023-03-01T09:01:18;16.30;;;14.70;;
46505;SDS011;32220;49.808;9.968;2023-03-01T09:03:46;14.10;;;12.70;;
46505;SDS011;32220;49.808;9.968;2023-03-01T09:06:14;14.93;;;13.53;;
46505;SDS011;32220;49.808;9.968;2023-03-01T09:08:45;15.47;;;13.97;;
46505;SDS011;32220;49.808;9.968;2023-03-01T09:11:16;15.53;;;14.10;;
46505;SDS011;32220;49.808;9.968;2023-03-01T09:13:46;14.97;;;13.57;;
46505;SDS011;32220;49.808;9.968;2023-03-01T09:16:16;15.20;;;13.63;;
46505;SDS011;32220;49.808;9.968;2023-03-01T09:18:45;14.70;;;13.33;;
46505;SDS011;32220;49.808;9.968;2023-03-01T09:21:16;14.73;;;13.43;;
46505;SDS011;32220;49.808;9.968;2023-03-01T09:23:48;16.60;;;15.00;;
46505;SDS011;32220;49.808;9.968;2023-03-01T09:26:17;15.40;;;14.10;;
46505;SDS011;32220;49.808;9.968;2023-03-01T09:28:48;14.37;;;13.10;;
46505;SDS011;32220;49.808;9.968;2023-03-01T09:31:18;16.57;;;14.97;;
46505;SDS011;32220;49.808;9.968;2023-03-01T09:33:48;16.43;;;14.93;;
46505;SDS011;32220;49.808;9.968;2023-03-01T09:36:19;14.87;;;13.47;;
46505;SDS011;32220;49.808;9.968;2023-03-01T09:38:50;15.80;;;14.30;;
46505;SDS011;32220;49.808;9.968;2023-03-01T09:41:24;15.67;;;14.17;;
46505;SDS011;32220;49.808;9.968;2023-03-01T09:44:03;15.87;;;14.07;;
46505;SDS011;32220;49.808;9.968;2023-03-01T09:46:40;16.10;;;14.60;;
46505;SDS011;32220;49.808;9.968;2023-03-01T09:49:11;14.93;;;13.63;;
46505;SDS011;32220;49.808;9.968;2023-03-01T09:51:46;16.00;;;14.33;;
46505;SDS011;32220;49.808;9.968;2023-03-01T09:54:23;16.13;;;14.60;;
46505;SDS011;32220;49.808;9.968;2023-03-01T09:56:57;15.63;;;14.07;;
46505;SDS011;32220;49.808;9.968;2023-03-01T09:59:33;16.17;;;14.57;;
46505;SDS011;32220;49.808;9.968;2023-03-01T10:02:19;15.73;;;14.13;;
46505;SDS011;32220;49.808;9.968;2023-03-01T10:04:53;14.47;;;13.07;;
46505;SDS011;32220;49.808;9.968;2023-03-01T10:07:30;15.63;;;14.23;;
46505;SDS011;32220;49.808;9.968;2023-03-01T10:10:07;15.87;;;14.23;;
46505;SDS011;32220;49.808;9.968;2023-03-01T10:12:37;16.27;;;14.60;;
46505;SDS011;32220;49.808;9.968;2023-03-01T10:15:10;15.43;;;13.83;;
46505;SDS011;32220;49.808;9.968;2023-03-01T10:17:42;16.73;;;15.23;;
46505;SDS011;32220;49.808;9.968;2023-03-01T10:20:15;15.27;;;13.57;;
46505;SDS011;32220;49.808;9.968;2023-03-01T10:22:45;16.47;;;14.87;;
46505;SDS011;32220;49.808;9.968;2023-03-01T10:25:20;15.70;;;14.20;;
46505;SDS011;32220;49.808;9.968;2023-03-01T10:28:00;14.90;;;13.30;;
46505;SDS011;32220;49.808;9.968;2023-03-01T10:30:34;15.57;;;14.27;;
46505;SDS011;32220;49.808;9.968;2023-03-01T10:33:09;15.63;;;14.32;;
46505;SDS011;32220;49.808;9.968;2023-03-01T10:35:44;15.05;;;13.55;;
46505;SDS011;32220;49.808;9.968;2023-03-01T10:38:13;15.00;;;13.60;;
46505;SDS011;32220;49.808;9.968;2023-03-01T10:40:55;14.93;;;13.53;;
46505;SDS011;32220;49.808;9.968;2023-03-01T10:43:24;14.47;;;13.17;;
46505;SDS011;32220;49.808;9.968;2023-03-01T10:45:54;15.43;;;14.03;;
46505;SDS011;32220;49.808;9.968;2023-03-01T10:48:22;16.50;;;15.03;;
46505;SDS011;32220;49.808;9.968;2023-03-01T10:51:04;15.33;;;13.93;;
46505;SDS011;32220;49.808;9.968;2023-03-01T10:53:34;15.80;;;14.47;;
46505;SDS011;32220;49.808;9.968;2023-03-01T10:56:06;15.57;;;14.17;;
46505;SDS011;32220;49.808;9.968;2023-03-01T10:58:36;15.73;;;14.33;;
46505;SDS011;32220;49.808;9.968;2023-03-01T11:01:06;15.73;;;14.17;;
46505;SDS011;32220;49.808;9.968;2023-03-01T11:04:03;15.60;;;14.13;;
46505;SDS011;32220;49.808;9.968;2023-03-01T11:06:38;15.03;;;13.60;;
46505;SDS011;32220;49.808;9.968;2023-03-01T11:09:14;15.00;;;13.53;;
46505;SDS011;32220;49.808;9.968;2023-03-01T11:11:44;15.73;;;14.33;;
46505;SDS011;32220;49.808;9.968;2023-03-01T11:14:14;15.63;;;14.13;;
46505;SDS011;32220;49.808;9.968;2023-03-01T11:16:44;16.60;;;15.20;;
46505;SDS011;32220;49.808;9.968;2023-03-01T11:19:16;16.43;;;14.93;;
46505;SDS011;32220;49.808;9.968;2023-03-01T11:21:50;16.57;;;15.17;;
46505;SDS011;32220;49.808;9.968;2023-03-01T11:24:23;15.20;;;13.80;;
46505;SDS011;32220;49.808;9.968;2023-03-01T11:26:59;15.70;;;14.30;;
46505;SDS011;32220;49.808;9.968;2023-03-01T11:29:31;15.47;;;14.00;;
46505;SDS011;32220;49.808;9.968;2023-03-01T11:32:06;14.77;;;13.37;;
46505;SDS011;32220;49.808;9.968;2023-03-01T11:34:40;14.50;;;13.20;;
46505;SDS011;32220;49.808;9.968;2023-03-01T11:37:19;15.23;;;13.63;;
46505;SDS011;32220;49.808;9.968;2023-03-01T11:39:55;14.37;;;13.07;;
46505;SDS011;32220;49.808;9.968;2023-03-01T11:42:34;15.07;;;13.57;;
46505;SDS011;32220;49.808;9.968;2023-03-01T11:45:13;14.07;;;12.83;;
46505;SDS011;32220;49.808;9.968;2023-03-01T11:47:48;15.83;;;14.33;;
46505;SDS011;32220;49.808;9.968;2023-03-01T11:50:29;15.83;;;14.43;;
46505;SDS011;32220;49.808;9.968;2023-03-01T11:53:12;15.93;;;13.53;;
46505;SDS011;32220;49.808;9.968;2023-03-01T11:55:57;15.33;;;13.93;;
46505;SDS011;32220;49.808;9.968;2023-03-01T11:58:40;13.57;;;12.38;;
46505;SDS011;32220;49.808;9.968;2023-03-01T12:01:22;14.55;;;13.25;;
46505;SDS011;32220;49.808;9.968;2023-03-01T12:04:03;14.35;;;13.15;;
46505;SDS011;32220;49.808;9.968;2023-03-01T12:06:52;14.00;;;12.75;;
46505;SDS011;32220;49.808;9.968;2023-03-01T12:09:29;14.00;;;12.70;;
46505;SDS011;32220;49.808;9.968;2023-03-01T12:12:13;14.52;;;13.10;;
46505;SDS011;32220;49.808;9.968;2023-03-01T12:14:58;13.52;;;12.23;;
46505;SDS011;32220;49.808;9.968;2023-03-01T12:17:46;14.27;;;12.77;;
46505;SDS011;32220;49.808;9.968;2023-03-01T12:20:28;14.75;;;13.48;;
46505;SDS011;32220;49.808;9.968;2023-03-01T12:23:10;13.80;;;12.60;;
46505;SDS011;32220;49.808;9.968;2023-03-01T12:25:52;13.02;;;11.85;;
46505;SDS011;32220;49.808;9.968;2023-03-01T12:28:44;13.57;;;12.38;;
46505;SDS011;32220;49.808;9.968;2023-03-01T12:31:29;15.63;;;14.10;;
46505;SDS011;32220;49.808;9.968;2023-03-01T12:34:12;13.07;;;11.90;;
46505;SDS011;32220;49.808;9.968;2023-03-01T12:37:04;14.73;;;13.13;;
46505;SDS011;32220;49.808;9.968;2023-03-01T12:39:47;13.32;;;12.15;;
46505;SDS011;32220;49.808;9.968;2023-03-01T12:42:28;12.77;;;11.68;;
46505;SDS011;32220;49.808;9.968;2023-03-01T12:45:21;14.20;;;12.93;;
46505;SDS011;32220;49.808;9.968;2023-03-01T12:48:08;15.60;;;14.27;;
46505;SDS011;32220;49.808;9.968;2023-03-01T12:50:47;14.60;;;13.40;;
46505;SDS011;32220;49.808;9.968;2023-03-01T12:53:20;15.05;;;13.57;;
46505;SDS011;32220;49.808;9.968;2023-03-01T12:55:50;15.10;;;13.60;;
46505;SDS011;32220;49.808;9.968;2023-03-01T12:58:23;15.07;;;13.77;;
46505;SDS011;32220;49.808;9.968;2023-03-01T13:01:01;14.97;;;13.47;;
46505;SDS011;32220;49.808;9.968;2023-03-01T13:03:36;13.93;;;12.70;;
46505;SDS011;32220;49.808;9.968;2023-03-01T13:06:17;13.50;;;12.30;;
46505;SDS011;32220;49.808;9.968;2023-03-01T13:08:52;15.30;;;13.90;;
46505;SDS011;32220;49.808;9.968;2023-03-01T13:11:26;15.33;;;13.97;;
46505;SDS011;32220;49.808;9.968;2023-03-01T13:14:08;15.40;;;13.97;;
46505;SDS011;32220;49.808;9.968;2023-03-01T13:17:07;13.83;;;12.50;;
46505;SDS011;32220;49.808;9.968;2023-03-01T13:20:00;13.77;;;12.50;;
46505;SDS011;32220;49.808;9.968;2023-03-01T13:22:30;15.07;;;13.67;;
46505;SDS011;32220;49.808;9.968;2023-03-01T13:25:00;14.73;;;13.30;;
46505;SDS011;32220;49.808;9.968;2023-03-01T13:27:29;15.00;;;13.60;;
46505;SDS011;32220;49.808;9.968;2023-03-01T13:29:59;14.20;;;12.70;;
46505;SDS011;32220;49.808;9.968;2023-03-01T13:32:33;14.63;;;13.23;;
46505;SDS011;32220;49.808;9.968;2023-03-01T13:35:08;13.43;;;12.23;;
46505;SDS011;32220;49.808;9.968;2023-03-01T13:41:04;14.17;;;12.80;;
46505;SDS011;32220;49.808;9.968;2023-03-01T13:43:33;14.10;;;12.70;;
46505;SDS011;32220;49.808;9.968;2023-03-01T13:46:07;14.90;;;13.33;;
46505;SDS011;32220;49.808;9.968;2023-03-01T13:48:39;13.07;;;11.87;;
46505;SDS011;32220;49.808;9.968;2023-03-01T13:51:08;13.80;;;12.50;;
46505;SDS011;32220;49.808;9.968;2023-03-01T13:53:40;12.93;;;11.73;;
46505;SDS011;32220;49.808;9.968;2023-03-01T13:56:12;13.70;;;12.40;;
46505;SDS011;32220;49.808;9.968;2023-03-01T13:58:49;13.67;;;12.37;;
46505;SDS011;32220;49.808;9.968;2023-03-01T14:01:24;14.97;;;13.37;;
46505;SDS011;32220;49.808;9.968;2023-03-01T14:03:56;13.97;;;12.50;;
46505;SDS011;32220;49.808;9.968;2023-03-01T14:06:25;13.00;;;11.80;;
46505;SDS011;32220;49.808;9.968;2023-03-01T14:09:00;13.60;;;12.20;;
46505;SDS011;32220;49.808;9.968;2023-03-01T14:14:48;14.27;;;11.80;;
46505;SDS011;32220;49.808;9.968;2023-03-01T14:20:18;12.87;;;11.57;;
46505;SDS011;32220;49.808;9.968;2023-03-01T14:22:48;13.13;;;11.83;;
46505;SDS011;32220;49.808;9.968;2023-03-01T14:25:21;13.30;;;10.87;;
46505;SDS011;32220;49.808;9.968;2023-03-01T14:27:54;13.63;;;11.17;;
46505;SDS011;32220;49.808;9.968;2023-03-01T14:30:24;12.40;;;11.20;;
46505;SDS011;32220;49.808;9.968;2023-03-01T14:32:55;13.20;;;11.90;;
46505;SDS011;32220;49.808;9.968;2023-03-01T14:35:27;12.17;;;11.00;;
46505;SDS011;32220;49.808;9.968;2023-03-01T14:37:56;12.67;;;11.30;;
46505;SDS011;32220;49.808;9.968;2023-03-01T14:40:26;12.73;;;10.80;;
46505;SDS011;32220;49.808;9.968;2023-03-01T14:42:56;12.63;;;11.33;;
46505;SDS011;32220;49.808;9.968;2023-03-01T14:45:26;13.40;;;11.03;;
46505;SDS011;32220;49.808;9.968;2023-03-01T14:47:58;14.63;;;11.07;;
46505;SDS011;32220;49.808;9.968;2023-03-01T14:50:30;12.20;;;10.93;;
46505;SDS011;32220;49.808;9.968;2023-03-01T14:53:00;12.03;;;10.83;;
46505;SDS011;32220;49.808;9.968;2023-03-01T14:55:30;11.77;;;10.53;;
46505;SDS011;32220;49.808;9.968;2023-03-01T14:58:02;13.87;;;11.70;;
46505;SDS011;32220;49.808;9.968;2023-03-01T15:00:31;12.97;;;11.10;;